Terminal Aerodrome Forecast
Issued by NWS

Home | Current Version | Previous Version | Text Only | Print | Product List | Glossary On
Versions: 1 2 3 4 5 6 7 8 9 10 11 12
000
FTUS43 KAPX 042338
TAFAPN
TAF
KAPN 042338Z 0500/0524 12006KT P6SM SCT250
     FM050100 00000KT P6SM SCT250
     FM050500 00000KT P6SM SCT250
      TEMPO 0507/0511 5SM BR
     FM051300 17005KT P6SM SCT250
     FM051900 13009KT P6SM SCT050=

USA.gov is the U.S. government's official web portal to all federal, state and local government web resources and services.